sensor_id;sensor_type;location;lat;lon;timestamp;temperature;humidity
6018;DHT22;3037;51.068;13.780;2022-10-16T00:00:38;15.40;99.90
6018;DHT22;3037;51.068;13.780;2022-10-16T00:03:04;15.40;99.90
6018;DHT22;3037;51.068;13.780;2022-10-16T00:05:30;15.40;99.90
6018;DHT22;3037;51.068;13.780;2022-10-16T00:07:56;15.50;99.90
6018;DHT22;3037;51.068;13.780;2022-10-16T00:10:22;15.50;99.90
6018;DHT22;3037;51.068;13.780;2022-10-16T00:12:48;15.60;99.90
6018;DHT22;3037;51.068;13.780;2022-10-16T00:15:14;15.30;99.90
6018;DHT22;3037;51.068;13.780;2022-10-16T00:17:39;15.40;99.90
6018;DHT22;3037;51.068;13.780;2022-10-16T00:20:05;15.30;99.90
6018;DHT22;3037;51.068;13.780;2022-10-16T00:22:31;15.40;99.90
6018;DHT22;3037;51.068;13.780;2022-10-16T00:24:57;15.40;99.90
6018;DHT22;3037;51.068;13.780;2022-10-16T00:27:23;15.70;99.90
6018;DHT22;3037;51.068;13.780;2022-10-16T00:29:52;15.50;99.90
6018;DHT22;3037;51.068;13.780;2022-10-16T00:32:18;15.50;99.90
6018;DHT22;3037;51.068;13.780;2022-10-16T00:34:44;15.50;99.90
6018;DHT22;3037;51.068;13.780;2022-10-16T00:37:10;15.40;99.90
6018;DHT22;3037;51.068;13.780;2022-10-16T00:39:36;15.40;99.90
6018;DHT22;3037;51.068;13.780;2022-10-16T00:42:01;15.50;99.90
6018;DHT22;3037;51.068;13.780;2022-10-16T00:47:10;15.50;99.90
6018;DHT22;3037;51.068;13.780;2022-10-16T00:49:38;15.60;99.90
6018;DHT22;3037;51.068;13.780;2022-10-16T00:52:04;15.40;99.90
6018;DHT22;3037;51.068;13.780;2022-10-16T00:54:32;15.30;99.90
6018;DHT22;3037;51.068;13.780;2022-10-16T00:57:01;15.50;99.90
6018;DHT22;3037;51.068;13.780;2022-10-16T00:59:29;15.50;99.90
6018;DHT22;3037;51.068;13.780;2022-10-16T01:01:56;15.50;99.90
6018;DHT22;3037;51.068;13.780;2022-10-16T01:04:23;15.60;99.90
6018;DHT22;3037;51.068;13.780;2022-10-16T01:06:56;15.70;99.90
6018;DHT22;3037;51.068;13.780;2022-10-16T01:09:31;15.70;99.90
6018;DHT22;3037;51.068;13.780;2022-10-16T01:20:25;15.70;99.90
6018;DHT22;3037;51.068;13.780;2022-10-16T01:23:15;15.80;99.90
6018;DHT22;3037;51.068;13.780;2022-10-16T01:28:46;15.90;99.90
6018;DHT22;3037;51.068;13.780;2022-10-16T01:31:16;15.90;99.90
6018;DHT22;3037;51.068;13.780;2022-10-16T01:33:46;15.90;99.90
6018;DHT22;3037;51.068;13.780;2022-10-16T01:36:15;16.00;99.90
6018;DHT22;3037;51.068;13.780;2022-10-16T01:38:43;15.80;99.90
6018;DHT22;3037;51.068;13.780;2022-10-16T01:41:26;16.00;99.90
6018;DHT22;3037;51.068;13.780;2022-10-16T01:44:01;16.00;99.90
6018;DHT22;3037;51.068;13.780;2022-10-16T01:46:28;15.90;99.90
6018;DHT22;3037;51.068;13.780;2022-10-16T01:48:56;15.90;99.90
6018;DHT22;3037;51.068;13.780;2022-10-16T01:51:23;15.90;99.90
6018;DHT22;3037;51.068;13.780;2022-10-16T01:53:53;15.90;99.90
6018;DHT22;3037;51.068;13.780;2022-10-16T01:56:20;15.90;99.90
6018;DHT22;3037;51.068;13.780;2022-10-16T01:58:53;15.90;99.90
6018;DHT22;3037;51.068;13.780;2022-10-16T02:01:22;16.00;99.90
6018;DHT22;3037;51.068;13.780;2022-10-16T02:03:51;16.20;99.90
6018;DHT22;3037;51.068;13.780;2022-10-16T02:06:18;15.90;99.90
6018;DHT22;3037;51.068;13.780;2022-10-16T02:08:43;15.90;99.90
6018;DHT22;3037;51.068;13.780;2022-10-16T02:11:10;16.00;99.90
6018;DHT22;3037;51.068;13.780;2022-10-16T02:13:40;16.10;99.90
6018;DHT22;3037;51.068;13.780;2022-10-16T02:16:08;16.10;99.90
6018;DHT22;3037;51.068;13.780;2022-10-16T02:18:34;15.90;99.90
6018;DHT22;3037;51.068;13.780;2022-10-16T02:21:22;16.20;99.90
6018;DHT22;3037;51.068;13.780;2022-10-16T02:26:37;16.10;99.90
6018;DHT22;3037;51.068;13.780;2022-10-16T02:29:09;16.10;99.90
6018;DHT22;3037;51.068;13.780;2022-10-16T02:31:38;16.10;99.90
6018;DHT22;3037;51.068;13.780;2022-10-16T02:34:06;16.20;99.90
6018;DHT22;3037;51.068;13.780;2022-10-16T02:36:34;16.20;99.90
6018;DHT22;3037;51.068;13.780;2022-10-16T02:39:01;16.20;99.90
6018;DHT22;3037;51.068;13.780;2022-10-16T02:41:29;16.30;99.90
6018;DHT22;3037;51.068;13.780;2022-10-16T02:43:55;16.20;99.90
6018;DHT22;3037;51.068;13.780;2022-10-16T02:46:21;16.10;99.90
6018;DHT22;3037;51.068;13.780;2022-10-16T02:48:47;16.30;99.90
6018;DHT22;3037;51.068;13.780;2022-10-16T02:51:12;16.80;99.90
6018;DHT22;3037;51.068;13.780;2022-10-16T02:53:38;16.30;99.90
6018;DHT22;3037;51.068;13.780;2022-10-16T02:56:04;16.20;99.90
6018;DHT22;3037;51.068;13.780;2022-10-16T02:58:29;16.30;99.90
6018;DHT22;3037;51.068;13.780;2022-10-16T03:00:55;16.40;99.90
6018;DHT22;3037;51.068;13.780;2022-10-16T03:03:21;16.30;99.90
6018;DHT22;3037;51.068;13.780;2022-10-16T03:05:46;16.20;99.90
6018;DHT22;3037;51.068;13.780;2022-10-16T03:08:13;16.30;99.90
6018;DHT22;3037;51.068;13.780;2022-10-16T03:10:38;16.20;99.90
6018;DHT22;3037;51.068;13.780;2022-10-16T03:13:04;16.30;99.90
6018;DHT22;3037;51.068;13.780;2022-10-16T03:15:30;16.30;99.90
6018;DHT22;3037;51.068;13.780;2022-10-16T03:17:58;16.40;99.90
6018;DHT22;3037;51.068;13.780;2022-10-16T03:20:24;16.30;99.90
6018;DHT22;3037;51.068;13.780;2022-10-16T03:22:50;16.30;99.90
6018;DHT22;3037;51.068;13.780;2022-10-16T03:25:16;16.30;99.90
6018;DHT22;3037;51.068;13.780;2022-10-16T03:27:41;16.10;99.90
6018;DHT22;3037;51.068;13.780;2022-10-16T03:30:07;16.20;99.90
6018;DHT22;3037;51.068;13.780;2022-10-16T03:32:33;16.20;99.90
6018;DHT22;3037;51.068;13.780;2022-10-16T03:34:59;16.10;99.90
6018;DHT22;3037;51.068;13.780;2022-10-16T03:37:24;16.30;99.90
6018;DHT22;3037;51.068;13.780;2022-10-16T03:39:50;16.10;99.90
6018;DHT22;3037;51.068;13.780;2022-10-16T03:42:16;16.10;99.90
6018;DHT22;3037;51.068;13.780;2022-10-16T03:44:41;16.10;99.90
6018;DHT22;3037;51.068;13.780;2022-10-16T03:47:07;16.00;99.90
6018;DHT22;3037;51.068;13.780;2022-10-16T03:49:32;16.00;99.90
6018;DHT22;3037;51.068;13.780;2022-10-16T03:51:58;16.00;99.90
6018;DHT22;3037;51.068;13.780;2022-10-16T03:54:23;16.00;99.90
6018;DHT22;3037;51.068;13.780;2022-10-16T03:56:49;16.00;99.90
6018;DHT22;3037;51.068;13.780;2022-10-16T03:59:14;16.00;99.90
6018;DHT22;3037;51.068;13.780;2022-10-16T04:01:40;16.00;99.90
6018;DHT22;3037;51.068;13.780;2022-10-16T04:04:06;16.00;99.90
6018;DHT22;3037;51.068;13.780;2022-10-16T04:06:31;15.90;99.90
6018;DHT22;3037;51.068;13.780;2022-10-16T04:08:57;15.90;99.90
6018;DHT22;3037;51.068;13.780;2022-10-16T04:11:22;15.90;99.90
6018;DHT22;3037;51.068;13.780;2022-10-16T04:13:48;15.80;99.90
6018;DHT22;3037;51.068;13.780;2022-10-16T04:16:13;15.80;99.90
6018;DHT22;3037;51.068;13.780;2022-10-16T04:18:39;15.80;99.90
6018;DHT22;3037;51.068;13.780;2022-10-16T04:21:06;15.80;99.90
6018;DHT22;3037;51.068;13.780;2022-10-16T04:23:32;15.80;99.90
6018;DHT22;3037;51.068;13.780;2022-10-16T04:25:58;15.90;99.90
6018;DHT22;3037;51.068;13.780;2022-10-16T04:28:24;15.90;99.90
6018;DHT22;3037;51.068;13.780;2022-10-16T04:30:50;15.90;99.90
6018;DHT22;3037;51.068;13.780;2022-10-16T04:33:15;15.90;99.90
6018;DHT22;3037;51.068;13.780;2022-10-16T04:35:41;15.90;99.90
6018;DHT22;3037;51.068;13.780;2022-10-16T04:38:06;15.90;99.90
6018;DHT22;3037;51.068;13.780;2022-10-16T04:40:32;15.90;99.90
6018;DHT22;3037;51.068;13.780;2022-10-16T04:42:59;15.80;99.90
6018;DHT22;3037;51.068;13.780;2022-10-16T04:45:25;15.80;99.90
6018;DHT22;3037;51.068;13.780;2022-10-16T04:47:50;15.80;99.90
6018;DHT22;3037;51.068;13.780;2022-10-16T04:50:16;15.80;99.90
6018;DHT22;3037;51.068;13.780;2022-10-16T04:52:41;15.60;99.90
6018;DHT22;3037;51.068;13.780;2022-10-16T04:55:07;15.60;99.90
6018;DHT22;3037;51.068;13.780;2022-10-16T04:57:33;15.60;99.90
6018;DHT22;3037;51.068;13.780;2022-10-16T04:59:59;15.60;99.90
6018;DHT22;3037;51.068;13.780;2022-10-16T05:02:25;15.60;99.90
6018;DHT22;3037;51.068;13.780;2022-10-16T05:04:51;15.70;99.90
6018;DHT22;3037;51.068;13.780;2022-10-16T05:07:16;15.70;99.90
6018;DHT22;3037;51.068;13.780;2022-10-16T05:09:42;15.70;99.90
6018;DHT22;3037;51.068;13.780;2022-10-16T05:12:08;15.70;99.90
6018;DHT22;3037;51.068;13.780;2022-10-16T05:14:33;15.70;99.90
6018;DHT22;3037;51.068;13.780;2022-10-16T05:17:00;15.70;99.90
6018;DHT22;3037;51.068;13.780;2022-10-16T05:19:26;15.70;99.90
6018;DHT22;3037;51.068;13.780;2022-10-16T05:21:51;15.80;99.90
6018;DHT22;3037;51.068;13.780;2022-10-16T05:24:17;15.80;99.90
6018;DHT22;3037;51.068;13.780;2022-10-16T05:26:42;15.70;99.90
6018;DHT22;3037;51.068;13.780;2022-10-16T05:29:09;15.80;99.90
6018;DHT22;3037;51.068;13.780;2022-10-16T05:31:34;15.80;99.90
6018;DHT22;3037;51.068;13.780;2022-10-16T05:34:00;15.80;99.90
6018;DHT22;3037;51.068;13.780;2022-10-16T05:36:25;15.80;99.90
6018;DHT22;3037;51.068;13.780;2022-10-16T05:38:51;15.80;99.90
6018;DHT22;3037;51.068;13.780;2022-10-16T05:41:17;15.80;99.90
6018;DHT22;3037;51.068;13.780;2022-10-16T05:43:50;15.80;99.90
6018;DHT22;3037;51.068;13.780;2022-10-16T05:46:16;15.80;99.90
6018;DHT22;3037;51.068;13.780;2022-10-16T05:48:41;15.80;99.90
6018;DHT22;3037;51.068;13.780;2022-10-16T05:51:10;15.80;99.90
6018;DHT22;3037;51.068;13.780;2022-10-16T05:53:37;15.80;99.90
6018;DHT22;3037;51.068;13.780;2022-10-16T05:56:04;15.80;99.90
6018;DHT22;3037;51.068;13.780;2022-10-16T05:58:32;15.90;99.90
6018;DHT22;3037;51.068;13.780;2022-10-16T06:01:00;16.00;99.90
6018;DHT22;3037;51.068;13.780;2022-10-16T06:03:26;16.10;99.90
6018;DHT22;3037;51.068;13.780;2022-10-16T06:05:52;16.10;99.90
6018;DHT22;3037;51.068;13.780;2022-10-16T06:08:19;16.10;99.90
6018;DHT22;3037;51.068;13.780;2022-10-16T06:10:45;16.10;99.90
6018;DHT22;3037;51.068;13.780;2022-10-16T06:13:12;16.30;99.90
6018;DHT22;3037;51.068;13.780;2022-10-16T06:15:39;16.20;99.90
6018;DHT22;3037;51.068;13.780;2022-10-16T06:18:07;16.30;99.90
6018;DHT22;3037;51.068;13.780;2022-10-16T06:20:32;16.40;99.90
6018;DHT22;3037;51.068;13.780;2022-10-16T06:22:58;16.40;99.90
6018;DHT22;3037;51.068;13.780;2022-10-16T06:25:23;16.40;99.90
6018;DHT22;3037;51.068;13.780;2022-10-16T06:27:49;16.50;99.90
6018;DHT22;3037;51.068;13.780;2022-10-16T06:30:15;16.70;99.90
6018;DHT22;3037;51.068;13.780;2022-10-16T06:32:40;16.70;99.90
6018;DHT22;3037;51.068;13.780;2022-10-16T06:35:06;16.80;99.90
6018;DHT22;3037;51.068;13.780;2022-10-16T06:37:32;16.70;99.90
6018;DHT22;3037;51.068;13.780;2022-10-16T06:39:57;16.60;99.90
6018;DHT22;3037;51.068;13.780;2022-10-16T06:42:23;16.80;99.90
6018;DHT22;3037;51.068;13.780;2022-10-16T06:44:48;16.70;99.90
6018;DHT22;3037;51.068;13.780;2022-10-16T06:47:14;16.80;99.90
6018;DHT22;3037;51.068;13.780;2022-10-16T06:49:39;16.90;99.90
6018;DHT22;3037;51.068;13.780;2022-10-16T06:52:05;17.20;99.90
6018;DHT22;3037;51.068;13.780;2022-10-16T06:54:30;17.30;99.90
6018;DHT22;3037;51.068;13.780;2022-10-16T06:56:56;17.50;99.90
6018;DHT22;3037;51.068;13.780;2022-10-16T06:59:22;17.50;99.90
6018;DHT22;3037;51.068;13.780;2022-10-16T07:01:48;17.70;99.90
6018;DHT22;3037;51.068;13.780;2022-10-16T07:04:13;17.80;99.90
6018;DHT22;3037;51.068;13.780;2022-10-16T07:06:39;17.80;99.90
6018;DHT22;3037;51.068;13.780;2022-10-16T07:09:11;17.80;99.90
6018;DHT22;3037;51.068;13.780;2022-10-16T07:11:39;17.60;99.90
6018;DHT22;3037;51.068;13.780;2022-10-16T07:14:10;17.60;99.90
6018;DHT22;3037;51.068;13.780;2022-10-16T07:16:37;17.40;99.90
6018;DHT22;3037;51.068;13.780;2022-10-16T07:19:03;17.40;99.90
6018;DHT22;3037;51.068;13.780;2022-10-16T07:21:31;17.40;99.90
6018;DHT22;3037;51.068;13.780;2022-10-16T07:24:00;17.40;99.90
6018;DHT22;3037;51.068;13.780;2022-10-16T07:26:30;17.50;99.90
6018;DHT22;3037;51.068;13.780;2022-10-16T07:28:56;17.60;99.90
6018;DHT22;3037;51.068;13.780;2022-10-16T07:31:23;17.70;99.90
6018;DHT22;3037;51.068;13.780;2022-10-16T07:33:49;17.80;99.90
6018;DHT22;3037;51.068;13.780;2022-10-16T07:36:16;17.80;99.90
6018;DHT22;3037;51.068;13.780;2022-10-16T07:38:43;17.80;99.90
6018;DHT22;3037;51.068;13.780;2022-10-16T07:41:11;17.80;99.90
6018;DHT22;3037;51.068;13.780;2022-10-16T07:43:37;17.80;99.90
6018;DHT22;3037;51.068;13.780;2022-10-16T07:46:03;17.80;99.90
6018;DHT22;3037;51.068;13.780;2022-10-16T07:48:31;17.80;99.90
6018;DHT22;3037;51.068;13.780;2022-10-16T07:50:58;17.80;99.90
6018;DHT22;3037;51.068;13.780;2022-10-16T07:53:24;17.70;99.90
6018;DHT22;3037;51.068;13.780;2022-10-16T07:55:50;17.70;99.90
6018;DHT22;3037;51.068;13.780;2022-10-16T07:58:15;17.90;99.90
6018;DHT22;3037;51.068;13.780;2022-10-16T08:00:41;18.00;99.90
6018;DHT22;3037;51.068;13.780;2022-10-16T08:03:08;17.90;99.90
6018;DHT22;3037;51.068;13.780;2022-10-16T08:05:33;18.00;99.90
6018;DHT22;3037;51.068;13.780;2022-10-16T08:08:00;18.20;99.90
6018;DHT22;3037;51.068;13.780;2022-10-16T08:10:27;18.20;99.90
6018;DHT22;3037;51.068;13.780;2022-10-16T08:12:52;18.30;99.90
6018;DHT22;3037;51.068;13.780;2022-10-16T08:15:19;19.70;99.90
6018;DHT22;3037;51.068;13.780;2022-10-16T08:17:57;19.90;99.90
6018;DHT22;3037;51.068;13.780;2022-10-16T08:20:23;20.00;99.90
6018;DHT22;3037;51.068;13.780;2022-10-16T08:22:48;19.30;99.90
6018;DHT22;3037;51.068;13.780;2022-10-16T08:25:14;19.10;99.90
6018;DHT22;3037;51.068;13.780;2022-10-16T08:27:40;18.90;99.90
6018;DHT22;3037;51.068;13.780;2022-10-16T08:30:06;18.70;99.90
6018;DHT22;3037;51.068;13.780;2022-10-16T08:32:32;18.80;99.90
6018;DHT22;3037;51.068;13.780;2022-10-16T08:34:57;19.10;99.90
6018;DHT22;3037;51.068;13.780;2022-10-16T08:37:23;19.30;99.90
6018;DHT22;3037;51.068;13.780;2022-10-16T08:39:48;19.90;99.90
6018;DHT22;3037;51.068;13.780;2022-10-16T08:44:59;20.60;99.90
6018;DHT22;3037;51.068;13.780;2022-10-16T08:50:25;20.50;99.90
6018;DHT22;3037;51.068;13.780;2022-10-16T08:52:53;20.60;99.90
6018;DHT22;3037;51.068;13.780;2022-10-16T08:58:00;21.00;99.90
6018;DHT22;3037;51.068;13.780;2022-10-16T09:00:26;23.60;99.90
6018;DHT22;3037;51.068;13.780;2022-10-16T09:03:11;25.70;90.40
6018;DHT22;3037;51.068;13.780;2022-10-16T09:08:42;25.20;77.20
6018;DHT22;3037;51.068;13.780;2022-10-16T09:14:23;29.50;46.30
6018;DHT22;3037;51.068;13.780;2022-10-16T09:17:30;28.30;31.50
6018;DHT22;3037;51.068;13.780;2022-10-16T09:20:01;28.50;34.10
6018;DHT22;3037;51.068;13.780;2022-10-16T09:22:29;29.60;24.10
6018;DHT22;3037;51.068;13.780;2022-10-16T09:25:00;28.50;25.70
6018;DHT22;3037;51.068;13.780;2022-10-16T09:27:26;28.20;27.80
6018;DHT22;3037;51.068;13.780;2022-10-16T09:29:51;30.00;19.40
6018;DHT22;3037;51.068;13.780;2022-10-16T09:32:21;30.70;17.00
6018;DHT22;3037;51.068;13.780;2022-10-16T09:34:50;28.40;21.40
6018;DHT22;3037;51.068;13.780;2022-10-16T09:37:19;26.70;31.80
6018;DHT22;3037;51.068;13.780;2022-10-16T09:39:49;25.60;49.30
6018;DHT22;3037;51.068;13.780;2022-10-16T09:42:27;25.70;53.80
6018;DHT22;3037;51.068;13.780;2022-10-16T09:44:53;25.80;57.30
6018;DHT22;3037;51.068;13.780;2022-10-16T09:47:30;26.60;53.20
6018;DHT22;3037;51.068;13.780;2022-10-16T09:50:19;26.40;51.20
6018;DHT22;3037;51.068;13.780;2022-10-16T09:52:45;26.00;56.30
6018;DHT22;3037;51.068;13.780;2022-10-16T09:55:16;25.10;65.90
6018;DHT22;3037;51.068;13.780;2022-10-16T09:57:53;24.50;75.30
6018;DHT22;3037;51.068;13.780;2022-10-16T10:00:20;25.50;76.40
6018;DHT22;3037;51.068;13.780;2022-10-16T10:02:46;28.40;54.60
6018;DHT22;3037;51.068;13.780;2022-10-16T10:05:22;26.90;45.10
6018;DHT22;3037;51.068;13.780;2022-10-16T10:07:55;27.00;47.60
6018;DHT22;3037;51.068;13.780;2022-10-16T10:12:49;26.80;49.10
6018;DHT22;3037;51.068;13.780;2022-10-16T10:15:15;26.50;50.20
6018;DHT22;3037;51.068;13.780;2022-10-16T10:17:57;25.90;54.90
6018;DHT22;3037;51.068;13.780;2022-10-16T10:22:51;25.20;70.30
6018;DHT22;3037;51.068;13.780;2022-10-16T10:28:05;25.70;65.20
6018;DHT22;3037;51.068;13.780;2022-10-16T10:47:36;26.20;51.10
6018;DHT22;3037;51.068;13.780;2022-10-16T10:50:14;26.50;50.20
6018;DHT22;3037;51.068;13.780;2022-10-16T10:53:38;26.30;49.00
6018;DHT22;3037;51.068;13.780;2022-10-16T10:56:37;26.00;49.90
6018;DHT22;3037;51.068;13.780;2022-10-16T11:01:39;25.70;49.90
6018;DHT22;3037;51.068;13.780;2022-10-16T11:06:59;25.50;53.40
6018;DHT22;3037;51.068;13.780;2022-10-16T11:09:31;25.40;54.20
6018;DHT22;3037;51.068;13.780;2022-10-16T11:12:36;25.30;53.30
6018;DHT22;3037;51.068;13.780;2022-10-16T11:17:47;25.10;55.90
6018;DHT22;3037;51.068;13.780;2022-10-16T11:20:20;24.60;58.30
6018;DHT22;3037;51.068;13.780;2022-10-16T11:22:56;24.70;55.60
6018;DHT22;3037;51.068;13.780;2022-10-16T11:25:30;24.60;55.10
6018;DHT22;3037;51.068;13.780;2022-10-16T11:28:13;24.70;57.50
6018;DHT22;3037;51.068;13.780;2022-10-16T11:30:55;25.70;54.10
6018;DHT22;3037;51.068;13.780;2022-10-16T11:33:39;25.90;48.90
6018;DHT22;3037;51.068;13.780;2022-10-16T11:36:33;25.30;50.80
6018;DHT22;3037;51.068;13.780;2022-10-16T11:39:19;25.20;50.70
6018;DHT22;3037;51.068;13.780;2022-10-16T11:41:51;25.00;48.70
6018;DHT22;3037;51.068;13.780;2022-10-16T11:47:02;24.70;52.20
6018;DHT22;3037;51.068;13.780;2022-10-16T11:49:31;24.90;51.90
6018;DHT22;3037;51.068;13.780;2022-10-16T11:54:49;24.90;51.80
6018;DHT22;3037;51.068;13.780;2022-10-16T11:57:34;24.80;52.90
6018;DHT22;3037;51.068;13.780;2022-10-16T12:00:27;25.00;52.60
6018;DHT22;3037;51.068;13.780;2022-10-16T12:08:20;25.20;51.90
6018;DHT22;3037;51.068;13.780;2022-10-16T12:10:47;25.30;50.80
6018;DHT22;3037;51.068;13.780;2022-10-16T12:18:40;25.60;51.30
6018;DHT22;3037;51.068;13.780;2022-10-16T12:21:06;25.90;50.00
6018;DHT22;3037;51.068;13.780;2022-10-16T12:23:50;25.80;45.70
6018;DHT22;3037;51.068;13.780;2022-10-16T12:26:38;25.60;49.30
6018;DHT22;3037;51.068;13.780;2022-10-16T12:29:22;25.40;49.60
6018;DHT22;3037;51.068;13.780;2022-10-16T12:31:50;25.20;48.90
6018;DHT22;3037;51.068;13.780;2022-10-16T12:34:37;25.10;48.90
6018;DHT22;3037;51.068;13.780;2022-10-16T12:37:18;25.00;47.00
6018;DHT22;3037;51.068;13.780;2022-10-16T12:39:47;24.80;50.60
6018;DHT22;3037;51.068;13.780;2022-10-16T12:44:55;24.60;51.30
6018;DHT22;3037;51.068;13.780;2022-10-16T12:47:24;24.50;54.00
6018;DHT22;3037;51.068;13.780;2022-10-16T12:49:54;24.50;54.00
6018;DHT22;3037;51.068;13.780;2022-10-16T12:52:39;24.80;53.10
6018;DHT22;3037;51.068;13.780;2022-10-16T12:55:15;25.40;52.30
6018;DHT22;3037;51.068;13.780;2022-10-16T13:00:54;25.90;47.60
6018;DHT22;3037;51.068;13.780;2022-10-16T13:06:13;26.00;44.70
6018;DHT22;3037;51.068;13.780;2022-10-16T13:23:05;24.70;55.20
6018;DHT22;3037;51.068;13.780;2022-10-16T13:28:27;24.60;54.80
6018;DHT22;3037;51.068;13.780;2022-10-16T13:30:57;24.50;56.80
6018;DHT22;3037;51.068;13.780;2022-10-16T13:35:56;24.50;59.20
6018;DHT22;3037;51.068;13.780;2022-10-16T13:38:27;24.20;63.50
6018;DHT22;3037;51.068;13.780;2022-10-16T13:41:01;23.80;68.20
6018;DHT22;3037;51.068;13.780;2022-10-16T13:43:50;23.50;75.20
6018;DHT22;3037;51.068;13.780;2022-10-16T13:46:21;23.40;83.50
6018;DHT22;3037;51.068;13.780;2022-10-16T13:49:02;23.10;90.20
6018;DHT22;3037;51.068;13.780;2022-10-16T13:51:28;22.60;99.10
6018;DHT22;3037;51.068;13.780;2022-10-16T13:53:58;22.30;99.90
6018;DHT22;3037;51.068;13.780;2022-10-16T13:56:29;22.10;99.90
6018;DHT22;3037;51.068;13.780;2022-10-16T13:59:06;21.90;99.90
6018;DHT22;3037;51.068;13.780;2022-10-16T14:01:43;21.90;99.90
6018;DHT22;3037;51.068;13.780;2022-10-16T14:04:11;22.10;99.90
6018;DHT22;3037;51.068;13.780;2022-10-16T14:06:41;22.30;99.90
6018;DHT22;3037;51.068;13.780;2022-10-16T14:11:53;22.40;99.90
6018;DHT22;3037;51.068;13.780;2022-10-16T14:14:20;22.50;99.90
6018;DHT22;3037;51.068;13.780;2022-10-16T14:16:45;22.60;99.90
6018;DHT22;3037;51.068;13.780;2022-10-16T14:19:27;22.60;99.90
6018;DHT22;3037;51.068;13.780;2022-10-16T14:21:53;22.50;99.90
6018;DHT22;3037;51.068;13.780;2022-10-16T14:26:57;22.50;99.90
6018;DHT22;3037;51.068;13.780;2022-10-16T14:29:24;22.40;99.90
6018;DHT22;3037;51.068;13.780;2022-10-16T14:32:06;22.50;99.90
6018;DHT22;3037;51.068;13.780;2022-10-16T14:34:36;22.50;99.90
6018;DHT22;3037;51.068;13.780;2022-10-16T14:37:27;22.40;99.90
6018;DHT22;3037;51.068;13.780;2022-10-16T14:39:53;22.30;99.90
6018;DHT22;3037;51.068;13.780;2022-10-16T14:42:21;22.40;99.90
6018;DHT22;3037;51.068;13.780;2022-10-16T14:44:50;22.40;99.90
6018;DHT22;3037;51.068;13.780;2022-10-16T14:47:20;22.30;99.90
6018;DHT22;3037;51.068;13.780;2022-10-16T14:49:53;22.10;99.90
6018;DHT22;3037;51.068;13.780;2022-10-16T14:52:24;22.00;99.90
6018;DHT22;3037;51.068;13.780;2022-10-16T14:54:50;22.00;99.90
6018;DHT22;3037;51.068;13.780;2022-10-16T14:57:18;21.80;99.90
6018;DHT22;3037;51.068;13.780;2022-10-16T14:59:45;21.80;99.90
6018;DHT22;3037;51.068;13.780;2022-10-16T15:04:51;21.80;99.90
6018;DHT22;3037;51.068;13.780;2022-10-16T15:07:17;21.70;99.90
6018;DHT22;3037;51.068;13.780;2022-10-16T15:09:42;21.60;99.90
6018;DHT22;3037;51.068;13.780;2022-10-16T15:12:08;21.60;99.90
6018;DHT22;3037;51.068;13.780;2022-10-16T15:14:33;21.80;99.90
6018;DHT22;3037;51.068;13.780;2022-10-16T15:16:59;21.90;99.90
6018;DHT22;3037;51.068;13.780;2022-10-16T15:19:24;21.80;99.90
6018;DHT22;3037;51.068;13.780;2022-10-16T15:21:50;21.70;99.90
6018;DHT22;3037;51.068;13.780;2022-10-16T15:24:16;21.60;99.90
6018;DHT22;3037;51.068;13.780;2022-10-16T15:26:42;21.30;99.90
6018;DHT22;3037;51.068;13.780;2022-10-16T15:29:08;21.10;99.90
6018;DHT22;3037;51.068;13.780;2022-10-16T15:31:34;21.10;99.90
6018;DHT22;3037;51.068;13.780;2022-10-16T15:33:59;21.10;99.90
6018;DHT22;3037;51.068;13.780;2022-10-16T15:36:33;21.00;99.90
6018;DHT22;3037;51.068;13.780;2022-10-16T15:39:10;20.90;99.90
6018;DHT22;3037;51.068;13.780;2022-10-16T15:41:37;20.90;99.90
6018;DHT22;3037;51.068;13.780;2022-10-16T15:44:03;20.90;99.90
6018;DHT22;3037;51.068;13.780;2022-10-16T15:46:28;20.70;99.90
6018;DHT22;3037;51.068;13.780;2022-10-16T15:48:57;20.60;99.90
6018;DHT22;3037;51.068;13.780;2022-10-16T15:51:24;20.60;99.90
6018;DHT22;3037;51.068;13.780;2022-10-16T15:53:49;20.60;99.90
6018;DHT22;3037;51.068;13.780;2022-10-16T15:56:17;20.50;99.90
6018;DHT22;3037;51.068;13.780;2022-10-16T15:58:43;20.50;99.90
6018;DHT22;3037;51.068;13.780;2022-10-16T16:01:09;20.40;99.90
6018;DHT22;3037;51.068;13.780;2022-10-16T16:03:36;20.40;99.90
6018;DHT22;3037;51.068;13.780;2022-10-16T16:06:07;20.40;99.90
6018;DHT22;3037;51.068;13.780;2022-10-16T16:08:33;20.10;99.90
6018;DHT22;3037;51.068;13.780;2022-10-16T16:11:01;19.80;99.90
6018;DHT22;3037;51.068;13.780;2022-10-16T16:13:27;19.80;99.90
6018;DHT22;3037;51.068;13.780;2022-10-16T16:15:53;19.60;99.90
6018;DHT22;3037;51.068;13.780;2022-10-16T16:18:18;19.70;99.90
6018;DHT22;3037;51.068;13.780;2022-10-16T16:20:44;19.60;99.90
6018;DHT22;3037;51.068;13.780;2022-10-16T16:23:09;19.50;99.90
6018;DHT22;3037;51.068;13.780;2022-10-16T16:25:35;19.40;99.90
6018;DHT22;3037;51.068;13.780;2022-10-16T16:28:01;19.30;99.90
6018;DHT22;3037;51.068;13.780;2022-10-16T16:30:27;19.20;99.90
6018;DHT22;3037;51.068;13.780;2022-10-16T16:32:52;19.10;99.90
6018;DHT22;3037;51.068;13.780;2022-10-16T16:35:18;19.00;99.90
6018;DHT22;3037;51.068;13.780;2022-10-16T16:37:43;18.80;99.90
6018;DHT22;3037;51.068;13.780;2022-10-16T16:40:09;18.60;99.90
6018;DHT22;3037;51.068;13.780;2022-10-16T16:42:34;18.60;99.90
6018;DHT22;3037;51.068;13.780;2022-10-16T16:45:00;18.50;99.90
6018;DHT22;3037;51.068;13.780;2022-10-16T16:47:25;18.30;99.90
6018;DHT22;3037;51.068;13.780;2022-10-16T16:49:51;18.30;99.90
6018;DHT22;3037;51.068;13.780;2022-10-16T16:52:17;18.10;99.90
6018;DHT22;3037;51.068;13.780;2022-10-16T16:54:43;17.90;99.90
6018;DHT22;3037;51.068;13.780;2022-10-16T16:57:10;17.80;99.90
6018;DHT22;3037;51.068;13.780;2022-10-16T16:59:35;17.70;99.90
6018;DHT22;3037;51.068;13.780;2022-10-16T17:02:02;17.70;99.90
6018;DHT22;3037;51.068;13.780;2022-10-16T17:04:27;17.50;99.90
6018;DHT22;3037;51.068;13.780;2022-10-16T17:06:54;17.50;99.90
6018;DHT22;3037;51.068;13.780;2022-10-16T17:09:20;17.30;99.90
6018;DHT22;3037;51.068;13.780;2022-10-16T17:11:45;17.20;99.90
6018;DHT22;3037;51.068;13.780;2022-10-16T17:14:13;17.30;99.90
6018;DHT22;3037;51.068;13.780;2022-10-16T17:16:39;17.30;99.90
6018;DHT22;3037;51.068;13.780;2022-10-16T17:19:12;17.20;99.90
6018;DHT22;3037;51.068;13.780;2022-10-16T17:21:38;17.00;99.90
6018;DHT22;3037;51.068;13.780;2022-10-16T17:24:04;17.00;99.90
6018;DHT22;3037;51.068;13.780;2022-10-16T17:26:30;17.10;99.90
6018;DHT22;3037;51.068;13.780;2022-10-16T17:28:58;17.20;99.90
6018;DHT22;3037;51.068;13.780;2022-10-16T17:31:30;17.20;99.90
6018;DHT22;3037;51.068;13.780;2022-10-16T17:33:58;17.20;99.90
6018;DHT22;3037;51.068;13.780;2022-10-16T17:36:23;17.30;99.90
6018;DHT22;3037;51.068;13.780;2022-10-16T17:38:49;17.30;99.90
6018;DHT22;3037;51.068;13.780;2022-10-16T17:41:23;17.30;99.90
6018;DHT22;3037;51.068;13.780;2022-10-16T17:43:49;17.10;99.90
6018;DHT22;3037;51.068;13.780;2022-10-16T17:46:17;17.00;99.90
6018;DHT22;3037;51.068;13.780;2022-10-16T17:48:48;16.90;99.90
6018;DHT22;3037;51.068;13.780;2022-10-16T17:51:17;16.80;99.90